Station History

Weather Underground - logo

Station Historical Data
Daily Summary for December 3, 2017 Units:  English    Metric   Both
« Previous Day
Next Day »
Daily Weekly Monthly Yearly Custom
  High: Low: Average:
Temperature: 61.1 °F 41.0 °F 49.6 °F
Dew Point: 50.4 °F 37.5 °F 43.2 °F
Humidity: 95 % 54 % 80 %
Wind Speed: 5.0 mph 0.0 mph 0.9 mph
Wind Gust: 5.0 mph - -
Wind:- - WNW
Pressure: 30.18 in 30.03 in -
Precipitation: 0.00 in    
Historical Graphs
 
 
Tabular Data for December 3, 2017
Time Temperature Dew Point Pressure Wind Wind Speed Wind Gust Humidity Rainfall Rate (Hourly)
00:00 44.4 °F 42.5 °F 30.04 in Calm     93 % 0.00 in
00:10 44.8 °F 42.9 °F 30.04 in Calm     93 % 0.00 in
00:20 45.1 °F 43.2 °F 30.03 in Calm     93 % 0.00 in
00:25 45.1 °F 43.2 °F 30.03 in Calm     93 % 0.00 in
00:30 45.0 °F 43.1 °F 30.03 in Calm     93 % 0.00 in
00:40 45.3 °F 43.4 °F 30.04 in Calm     93 % 0.00 in
00:50 44.5 °F 42.3 °F 30.04 in Calm     92 % 0.00 in
00:55 44.4 °F 42.2 °F 30.04 in Calm     92 % 0.00 in
01:00 44.6 °F 42.7 °F 30.04 in Calm     93 % 0.00 in
01:10 45.0 °F 43.4 °F 30.03 in Calm     94 % 0.00 in
01:20 45.2 °F 43.3 °F 30.04 in Calm     93 % 0.00 in
01:25 45.2 °F 43.3 °F 30.04 in Calm     93 % 0.00 in
01:30 45.0 °F 43.1 °F 30.04 in Calm     93 % 0.00 in
01:35 44.7 °F 42.5 °F 30.04 in Calm     92 % 0.00 in
01:40 44.5 °F 42.6 °F 30.04 in Calm     93 % 0.00 in
01:45 44.4 °F 42.2 °F 30.04 in Calm     92 % 0.00 in
01:50 44.2 °F 42.0 °F 30.04 in Calm     92 % 0.00 in
01:55 44.2 °F 42.3 °F 30.04 in Calm     93 % 0.00 in
02:00 44.3 °F 42.4 °F 30.04 in ESE 1.2 mph 1.2 mph 93 % 0.00 in
02:05 44.5 °F 42.6 °F 30.05 in Calm     93 % 0.00 in
02:10 44.2 °F 42.0 °F 30.05 in Calm     92 % 0.00 in
02:15 44.0 °F 42.1 °F 30.05 in Calm     93 % 0.00 in
02:20 43.9 °F 42.0 °F 30.05 in Calm     93 % 0.00 in
02:25 43.9 °F 42.0 °F 30.06 in ESE 1.2 mph   93 % 0.00 in
02:30 44.0 °F 42.1 °F 30.06 in Calm     93 % 0.00 in
02:35 44.1 °F 42.2 °F 30.06 in Calm     93 % 0.00 in
02:40 44.2 °F 42.3 °F 30.06 in Calm     93 % 0.00 in
02:45 44.2 °F 42.3 °F 30.06 in Calm     93 % 0.00 in
02:46 44.2 °F 42.3 °F 30.06 in Calm     93 % 0.00 in
02:51 44.3 °F 42.4 °F 30.06 in Calm     93 % 0.00 in
02:56 44.5 °F 42.9 °F 30.06 in Calm     94 % 0.00 in
03:01 44.8 °F 43.2 °F 30.05 in ESE 1.2 mph   94 % 0.00 in
03:06 45.1 °F 43.5 °F 30.05 in Calm     94 % 0.00 in
03:11 45.3 °F 43.4 °F 30.05 in East 1.2 mph 1.2 mph 93 % 0.00 in
03:16 45.6 °F 43.7 °F 30.06 in Calm     93 % 0.00 in
03:21 45.7 °F 43.8 °F 30.06 in Calm     93 % 0.00 in
03:26 45.8 °F 43.9 °F 30.06 in Calm     93 % 0.00 in
03:31 45.9 °F 44.0 °F 30.06 in Calm     93 % 0.00 in
03:36 45.9 °F 44.0 °F 30.06 in Calm     93 % 0.00 in
03:41 45.8 °F 43.9 °F 30.06 in Calm     93 % 0.00 in
03:46 45.6 °F 43.7 °F 30.06 in Calm     93 % 0.00 in
03:56 45.4 °F 43.5 °F 30.06 in Calm     93 % 0.00 in
04:01 45.3 °F 43.4 °F 30.05 in Calm     93 % 0.00 in
04:06 45.3 °F 43.4 °F 30.05 in Calm     93 % 0.00 in
04:11 45.3 °F 43.4 °F 30.06 in Calm     93 % 0.00 in
04:16 45.2 °F 43.3 °F 30.06 in Calm     93 % 0.00 in
04:21 45.1 °F 43.2 °F 30.05 in Calm     93 % 0.00 in
04:26 45.1 °F 43.2 °F 30.06 in Calm     93 % 0.00 in
04:31 44.9 °F 43.0 °F 30.06 in Calm     93 % 0.00 in
04:36 44.9 °F 43.0 °F 30.06 in Calm     93 % 0.00 in
04:41 44.8 °F 42.9 °F 30.06 in Calm     93 % 0.00 in
04:46 44.7 °F 42.8 °F 30.06 in Calm     93 % 0.00 in
04:51 44.7 °F 43.1 °F 30.06 in Calm     94 % 0.00 in
04:56 44.7 °F 43.1 °F 30.06 in Calm     94 % 0.00 in
05:02 44.7 °F 43.1 °F 30.06 in Calm     94 % 0.00 in
05:07 44.7 °F 43.1 °F 30.06 in Calm     94 % 0.00 in
05:12 44.6 °F 43.0 °F 30.07 in Calm     94 % 0.00 in
05:17 44.4 °F 42.8 °F 30.07 in Calm     94 % 0.00 in
05:22 44.2 °F 42.6 °F 30.07 in Calm     94 % 0.00 in
05:27 44.1 °F 42.5 °F 30.08 in Calm     94 % 0.00 in
05:32 44.0 °F 42.4 °F 30.08 in Calm     94 % 0.00 in
05:37 44.0 °F 42.4 °F 30.08 in Calm     94 % 0.00 in
05:42 44.0 °F 42.4 °F 30.08 in Calm     94 % 0.00 in
05:47 43.9 °F 42.3 °F 30.09 in Calm     94 % 0.00 in
05:52 43.9 °F 42.3 °F 30.09 in Calm     94 % 0.00 in
05:57 43.9 °F 42.3 °F 30.09 in Calm     94 % 0.00 in
06:02 43.8 °F 42.5 °F 30.09 in Calm     95 % 0.00 in
06:07 43.7 °F 42.1 °F 30.09 in Calm     94 % 0.00 in
06:12 43.7 °F 42.4 °F 30.09 in Calm     95 % 0.00 in
06:17 43.6 °F 42.3 °F 30.10 in Calm     95 % 0.00 in
06:22 43.5 °F 42.2 °F 30.10 in Calm     95 % 0.00 in
06:27 43.4 °F 42.1 °F 30.10 in Calm     95 % 0.00 in
06:32 43.8 °F 42.5 °F 30.11 in East 1.2 mph   95 % 0.00 in
06:37 44.0 °F 42.7 °F 30.11 in Calm     95 % 0.00 in
06:42 44.0 °F 42.7 °F 30.11 in Calm     95 % 0.00 in
06:47 43.9 °F 42.6 °F 30.11 in Calm     95 % 0.00 in
06:52 43.8 °F 42.5 °F 30.11 in Calm     95 % 0.00 in
06:57 43.9 °F 42.6 °F 30.11 in Calm     95 % 0.00 in
07:02 43.3 °F 41.7 °F 30.12 in Calm     94 % 0.00 in
07:07 43.1 °F 41.5 °F 30.12 in Calm     94 % 0.00 in
07:12 43.2 °F 41.9 °F 30.13 in Calm   0.1 mph 95 % 0.00 in
07:17 42.9 °F 41.3 °F 30.13 in East 1.2 mph 1.2 mph 94 % 0.00 in
07:22 42.9 °F 41.3 °F 30.14 in NW 1.2 mph 1.2 mph 94 % 0.00 in
07:27 43.1 °F 41.8 °F 30.14 in NW 3.5 mph 3.5 mph 95 % 0.00 in
07:30 43.3 °F 42.0 °F 30.15 in NW 2.3 mph 2.3 mph 95 % 0.00 in
07:33 43.5 °F 42.2 °F 30.15 in NW 2.3 mph 2.3 mph 95 % 0.00 in
07:38 43.9 °F 42.6 °F 30.15 in NW 1.2 mph 1.2 mph 95 % 0.00 in
07:43 44.2 °F 42.9 °F 30.15 in NW 1.2 mph   95 % 0.00 in
07:48 44.7 °F 43.4 °F 30.16 in Calm     95 % 0.00 in
07:53 45.1 °F 43.5 °F 30.16 in Calm     94 % 0.00 in
07:58 45.5 °F 43.9 °F 30.16 in Calm     94 % 0.00 in
08:03 45.9 °F 44.3 °F 30.16 in WNW 1.2 mph   94 % 0.00 in
08:08 46.2 °F 44.6 °F 30.16 in Calm     94 % 0.00 in
08:13 46.4 °F 44.5 °F 30.16 in Calm     93 % 0.00 in
08:18 46.7 °F 44.8 °F 30.16 in Calm     93 % 0.00 in
08:23 47.1 °F 45.2 °F 30.16 in Calm     93 % 0.00 in
08:28 47.7 °F 45.8 °F 30.17 in Calm     93 % 0.00 in
08:33 48.2 °F 46.0 °F 30.17 in Calm     92 % 0.00 in
08:38 48.7 °F 46.5 °F 30.17 in Calm     92 % 0.00 in
08:43 49.2 °F 46.7 °F 30.17 in Calm     91 % 0.00 in
08:48 49.5 °F 46.7 °F 30.17 in Calm     90 % 0.00 in
08:53 49.8 °F 47.0 °F 30.17 in Calm     90 % 0.00 in
08:58 50.1 °F 47.0 °F 30.17 in Calm     89 % 0.00 in
09:03 50.4 °F 47.3 °F 30.17 in WNW 1.2 mph 1.2 mph 89 % 0.00 in
09:08 50.8 °F 47.7 °F 30.17 in Calm     89 % 0.00 in
09:13 51.6 °F 48.5 °F 30.17 in NNW 1.2 mph   89 % 0.00 in
09:18 51.9 °F 48.5 °F 30.17 in NW 1.2 mph   88 % 0.00 in
09:28 52.6 °F 48.8 °F 30.18 in WNW 2.3 mph 2.3 mph 87 % 0.00 in
09:33 52.8 °F 49.0 °F 30.17 in WNW 2.3 mph 2.3 mph 87 % 0.00 in
09:38 53.1 °F 49.3 °F 30.18 in NW 1.2 mph 1.2 mph 87 % 0.00 in
09:43 53.4 °F 49.3 °F 30.18 in WNW 1.2 mph   86 % 0.00 in
09:48 53.8 °F 49.7 °F 30.18 in NW 1.0 mph 1.0 mph 86 % 0.00 in
09:53 54.3 °F 49.9 °F 30.18 in West 2.3 mph 2.3 mph 85 % 0.00 in
09:58 54.6 °F 50.2 °F 30.18 in WNW 1.2 mph 1.2 mph 85 % 0.00 in
10:03 55.0 °F 50.3 °F 30.18 in NW 3.5 mph 3.5 mph 84 % 0.00 in
10:08 55.1 °F 50.0 °F 30.18 in NW 3.5 mph 3.5 mph 83 % 0.00 in
10:13 55.5 °F 50.1 °F 30.18 in WNW 3.5 mph 3.5 mph 82 % 0.00 in
10:18 55.6 °F 50.2 °F 30.18 in NW 2.3 mph 2.3 mph 82 % 0.00 in
10:23 55.8 °F 50.1 °F 30.17 in NW 3.5 mph 3.5 mph 81 % 0.00 in
10:28 56.1 °F 50.3 °F 30.17 in NW 3.5 mph 3.5 mph 81 % 0.00 in
10:33 56.3 °F 50.2 °F 30.17 in WNW 3.5 mph 3.5 mph 80 % 0.00 in
10:38 56.5 °F 50.4 °F 30.17 in NW 5.0 mph 5.0 mph 80 % 0.00 in
10:43 56.6 °F 50.2 °F 30.17 in NW 3.5 mph 3.5 mph 79 % 0.00 in
10:49 56.6 °F 50.2 °F 30.17 in NNW 3.5 mph 3.5 mph 79 % 0.00 in
10:54 56.6 °F 50.2 °F 30.17 in North 4.6 mph 4.6 mph 79 % 0.00 in
10:59 56.6 °F 49.8 °F 30.17 in NW 3.5 mph 3.5 mph 78 % 0.00 in
11:04 56.9 °F 50.1 °F 30.17 in NNW 3.5 mph 3.5 mph 78 % 0.00 in
11:09 57.2 °F 50.1 °F 30.16 in NNE 3.5 mph 3.5 mph 77 % 0.00 in
11:14 57.4 °F 50.2 °F 30.16 in NW 3.5 mph 3.5 mph 77 % 0.00 in
11:19 57.6 °F 49.7 °F 30.16 in WNW 3.5 mph 3.5 mph 75 % 0.00 in
11:24 57.6 °F 49.7 °F 30.16 in NW 3.5 mph 3.5 mph 75 % 0.00 in
11:29 57.7 °F 50.2 °F 30.16 in NW 3.5 mph 3.5 mph 76 % 0.00 in
11:34 57.9 °F 50.0 °F 30.15 in North 3.5 mph 3.5 mph 75 % 0.00 in
11:39 57.9 °F 50.0 °F 30.15 in NW 3.5 mph 3.5 mph 75 % 0.00 in
11:44 57.8 °F 49.6 °F 30.15 in WNW 2.3 mph 2.3 mph 74 % 0.00 in
11:49 57.9 °F 49.7 °F 30.15 in NW 3.5 mph 3.5 mph 74 % 0.00 in
11:54 57.9 °F 49.7 °F 30.14 in NW 4.6 mph 4.6 mph 74 % 0.00 in
11:59 58.1 °F 49.9 °F 30.15 in WNW 3.5 mph 3.5 mph 74 % 0.00 in
12:04 58.1 °F 49.9 °F 30.14 in WNW 3.5 mph 3.5 mph 74 % 0.00 in
12:09 58.3 °F 49.3 °F 30.14 in NW 3.5 mph 3.5 mph 72 % 0.00 in
12:14 58.1 °F 49.1 °F 30.14 in WNW 3.5 mph 3.5 mph 72 % 0.00 in
12:19 58.1 °F 49.5 °F 30.13 in North 3.5 mph 3.5 mph 73 % 0.00 in
12:24 58.2 °F 49.6 °F 30.13 in North 3.5 mph 3.5 mph 73 % 0.00 in
12:29 58.2 °F 48.8 °F 30.13 in NW 3.5 mph 3.5 mph 71 % 0.00 in
12:34 58.4 °F 49.0 °F 30.13 in West 3.5 mph 3.5 mph 71 % 0.00 in
12:39 58.7 °F 49.3 °F 30.13 in WNW 3.5 mph 3.5 mph 71 % 0.00 in
12:44 58.9 °F 48.7 °F 30.12 in NW 2.3 mph 2.3 mph 69 % 0.00 in
12:49 59.0 °F 48.8 °F 30.12 in NW 2.3 mph 2.3 mph 69 % 0.00 in
12:54 59.1 °F 48.9 °F 30.12 in NW 2.0 mph 2.0 mph 69 % 0.00 in
12:59 59.4 °F 48.8 °F 30.12 in NW 3.5 mph 3.5 mph 68 % 0.00 in
13:04 59.2 °F 47.8 °F 30.12 in NNW 5.0 mph 5.0 mph 66 % 0.00 in
13:05 59.2 °F 47.8 °F 30.12 in WSW 4.6 mph 4.6 mph 66 % 0.00 in
13:15 59.3 °F 47.5 °F 30.11 in NW 3.5 mph 3.5 mph 65 % 0.00 in
13:20 59.6 °F 47.8 °F 30.11 in NW 3.0 mph 3.0 mph 65 % 0.00 in
13:25 59.7 °F 47.5 °F 30.11 in NW 3.5 mph 3.5 mph 64 % 0.00 in
13:30 59.7 °F 47.9 °F 30.11 in NW 5.0 mph 5.0 mph 65 % 0.00 in
13:35 59.6 °F 46.6 °F 30.11 in NW 3.5 mph 3.5 mph 62 % 0.00 in
13:40 59.6 °F 47.0 °F 30.11 in NW 1.2 mph 1.2 mph 63 % 0.00 in
13:45 59.8 °F 46.7 °F 30.10 in NW 3.5 mph 3.5 mph 62 % 0.00 in
13:50 59.7 °F 46.2 °F 30.10 in NW 3.5 mph 3.5 mph 61 % 0.00 in
13:55 59.6 °F 46.6 °F 30.10 in NNW 2.0 mph 2.0 mph 62 % 0.00 in
14:00 59.7 °F 46.7 °F 30.10 in WNW 1.2 mph 1.2 mph 62 % 0.00 in
14:05 60.0 °F 46.5 °F 30.10 in NW 2.3 mph 2.3 mph 61 % 0.00 in
14:10 60.0 °F 46.5 °F 30.10 in NNW 2.0 mph 2.0 mph 61 % 0.00 in
14:15 60.1 °F 46.6 °F 30.10 in NW 2.3 mph 2.3 mph 61 % 0.00 in
14:20 60.1 °F 47.0 °F 30.10 in NW 1.2 mph   62 % 0.00 in
14:25 60.2 °F 46.7 °F 30.09 in NW 1.2 mph 1.2 mph 61 % 0.00 in
14:30 60.4 °F 46.9 °F 30.09 in NNE 3.5 mph 3.5 mph 61 % 0.00 in
14:35 60.4 °F 46.0 °F 30.09 in NW 3.5 mph 3.5 mph 59 % 0.00 in
14:40 60.6 °F 46.2 °F 30.09 in WNW 2.3 mph 2.3 mph 59 % 0.00 in
14:45 60.7 °F 45.8 °F 30.09 in Calm     58 % 0.00 in
14:50 60.7 °F 45.8 °F 30.09 in NW 1.2 mph 1.2 mph 58 % 0.00 in
14:55 60.7 °F 46.7 °F 30.09 in ESE 1.2 mph 1.2 mph 60 % 0.00 in
15:05 61.0 °F 47.0 °F 30.09 in ESE 1.2 mph   60 % 0.00 in
15:10 61.0 °F 46.6 °F 30.09 in SSE 1.2 mph 1.2 mph 59 % 0.00 in
15:15 61.1 °F 46.7 °F 30.09 in Calm     59 % 0.00 in
15:20 61.1 °F 46.7 °F 30.09 in Calm     59 % 0.00 in
15:25 61.1 °F 46.7 °F 30.09 in ESE 1.2 mph   59 % 0.00 in
15:30 61.0 °F 45.7 °F 30.09 in Calm     57 % 0.00 in
15:35 60.8 °F 45.5 °F 30.09 in NW 1.2 mph 1.2 mph 57 % 0.00 in
15:38 60.6 °F 45.3 °F 30.09 in West 1.2 mph 1.2 mph 57 % 0.00 in
15:43 60.3 °F 45.5 °F 30.09 in NW 2.3 mph   58 % 0.00 in
15:48 60.1 °F 45.3 °F 30.09 in NW 1.2 mph   58 % 0.00 in
15:53 59.9 °F 44.6 °F 30.09 in NW 2.3 mph 2.3 mph 57 % 0.00 in
15:58 59.8 °F 44.1 °F 30.09 in WNW 1.2 mph 1.2 mph 56 % 0.00 in
16:03 59.6 °F 43.4 °F 30.09 in NW 2.3 mph 2.3 mph 55 % 0.00 in
16:08 59.2 °F 42.6 °F 30.09 in NW 1.2 mph 1.2 mph 54 % 0.00 in
16:13 58.8 °F 42.7 °F 30.09 in NW 1.2 mph 1.2 mph 55 % 0.00 in
16:18 58.4 °F 42.3 °F 30.09 in NW 2.3 mph 2.3 mph 55 % 0.00 in
16:23 58.2 °F 42.6 °F 30.09 in WNW 1.2 mph 1.2 mph 56 % 0.00 in
16:28 57.7 °F 42.1 °F 30.09 in NW 1.2 mph 1.2 mph 56 % 0.00 in
16:33 57.4 °F 41.8 °F 30.09 in Calm     56 % 0.00 in
16:38 57.1 °F 41.5 °F 30.09 in WNW 1.2 mph 1.2 mph 56 % 0.00 in
16:43 56.6 °F 41.5 °F 30.09 in NW 1.2 mph 1.2 mph 57 % 0.00 in
16:46 56.4 °F 41.3 °F 30.09 in Calm     57 % 0.00 in
16:51 55.8 °F 41.2 °F 30.09 in WNW 1.2 mph   58 % 0.00 in
16:56 55.3 °F 41.6 °F 30.09 in Calm     60 % 0.00 in
17:01 55.0 °F 41.4 °F 30.09 in WNW 1.2 mph   60 % 0.00 in
17:06 54.9 °F 41.3 °F 30.09 in Calm     60 % 0.00 in
17:11 54.6 °F 41.0 °F 30.09 in Calm     60 % 0.00 in
17:16 54.3 °F 41.1 °F 30.10 in Calm     61 % 0.00 in
17:21 54.0 °F 41.3 °F 30.10 in Calm     62 % 0.00 in
17:26 53.8 °F 41.1 °F 30.10 in Calm     62 % 0.00 in
17:31 53.4 °F 41.1 °F 30.10 in Calm     63 % 0.00 in
17:36 53.1 °F 40.8 °F 30.10 in Calm     63 % 0.00 in
17:41 52.9 °F 40.6 °F 30.10 in Calm     63 % 0.00 in
17:46 52.8 °F 40.1 °F 30.10 in Calm     62 % 0.00 in
17:51 53.0 °F 39.5 °F 30.11 in Calm     60 % 0.00 in
17:56 52.9 °F 39.0 °F 30.11 in Calm     59 % 0.00 in
18:01 52.7 °F 38.8 °F 30.11 in Calm     59 % 0.00 in
18:06 52.2 °F 39.1 °F 30.11 in Calm     61 % 0.00 in
18:11 51.5 °F 39.3 °F 30.11 in Calm     63 % 0.00 in
18:16 51.0 °F 39.6 °F 30.11 in Calm     65 % 0.00 in
18:21 50.4 °F 39.5 °F 30.11 in Calm     66 % 0.00 in
18:26 50.0 °F 39.5 °F 30.11 in Calm     67 % 0.00 in
18:31 49.6 °F 39.5 °F 30.11 in Calm     68 % 0.00 in
18:36 49.5 °F 39.7 °F 30.11 in Calm     69 % 0.00 in
18:41 49.1 °F 40.1 °F 30.11 in Calm     71 % 0.00 in
18:46 48.5 °F 39.5 °F 30.11 in Calm     71 % 0.00 in
18:51 48.0 °F 39.8 °F 30.12 in Calm     73 % 0.00 in
18:56 47.5 °F 39.6 °F 30.12 in Calm     74 % 0.00 in
19:01 47.3 °F 39.8 °F 30.12 in Calm     75 % 0.00 in
19:06 47.1 °F 39.2 °F 30.12 in Calm     74 % 0.00 in
19:11 47.5 °F 39.3 °F 30.12 in Calm     73 % 0.00 in
19:16 48.0 °F 39.0 °F 30.12 in Calm     71 % 0.00 in
19:19 48.4 °F 39.1 °F 30.12 in Calm     70 % 0.00 in
19:20 48.6 °F 38.9 °F 30.11 in NW 1.2 mph   69 % 0.00 in
19:23 48.9 °F 38.8 °F 30.12 in Calm     68 % 0.00 in
19:25 49.0 °F 38.9 °F 30.12 in NW 1.2 mph   68 % 0.00 in
19:28 49.0 °F 38.9 °F 30.12 in Calm     68 % 0.00 in
19:30 49.0 °F 38.9 °F 30.12 in Calm     68 % 0.00 in
19:35 48.9 °F 38.8 °F 30.12 in Calm     68 % 0.00 in
19:39 48.7 °F 39.0 °F 30.12 in Calm     69 % 0.00 in
19:40 48.6 °F 38.5 °F 30.12 in Calm     68 % 0.00 in
19:45 48.2 °F 38.9 °F 30.12 in Calm     70 % 0.00 in
19:50 47.8 °F 38.8 °F 30.12 in Calm     71 % 0.00 in
19:56 47.3 °F 39.1 °F 30.12 in Calm     73 % 0.00 in
20:01 46.8 °F 39.3 °F 30.12 in Calm     75 % 0.00 in
20:06 46.1 °F 39.0 °F 30.13 in Calm     76 % 0.00 in
20:11 45.5 °F 38.7 °F 30.13 in Calm     77 % 0.00 in
20:16 45.1 °F 38.6 °F 30.13 in Calm     78 % 0.00 in
20:21 44.8 °F 38.7 °F 30.13 in Calm     79 % 0.00 in
20:26 44.5 °F 38.7 °F 30.14 in Calm     80 % 0.00 in
20:31 44.4 °F 38.9 °F 30.14 in Calm     81 % 0.00 in
20:36 44.5 °F 38.7 °F 30.14 in Calm     80 % 0.00 in
20:46 43.9 °F 38.4 °F 30.14 in Calm     81 % 0.00 in
20:51 43.4 °F 38.3 °F 30.14 in Calm     82 % 0.00 in
20:56 42.9 °F 38.1 °F 30.15 in Calm     83 % 0.00 in
21:01 42.4 °F 37.9 °F 30.15 in Calm     84 % 0.00 in
21:06 42.2 °F 38.0 °F 30.15 in Calm     85 % 0.00 in
21:11 42.0 °F 37.8 °F 30.15 in Calm     85 % 0.00 in
21:16 42.1 °F 38.2 °F 30.15 in Calm     86 % 0.00 in
21:21 42.1 °F 37.9 °F 30.15 in Calm     85 % 0.00 in
21:26 42.2 °F 38.0 °F 30.15 in Calm     85 % 0.00 in
21:36 42.2 °F 37.7 °F 30.16 in Calm     84 % 0.00 in
21:41 42.1 °F 37.6 °F 30.16 in Calm     84 % 0.00 in
21:46 42.0 °F 37.8 °F 30.16 in Calm     85 % 0.00 in
21:51 42.0 °F 37.8 °F 30.16 in Calm     85 % 0.00 in
21:56 42.0 °F 37.8 °F 30.16 in Calm     85 % 0.00 in
21:57 42.0 °F 37.8 °F 30.16 in Calm     85 % 0.00 in
22:02 42.1 °F 37.9 °F 30.16 in Calm     85 % 0.00 in
22:07 42.3 °F 38.1 °F 30.16 in Calm     85 % 0.00 in
22:12 42.5 °F 38.3 °F 30.16 in Calm     85 % 0.00 in
22:18 42.6 °F 38.4 °F 30.17 in Calm     85 % 0.00 in
22:23 42.6 °F 38.4 °F 30.17 in Calm     85 % 0.00 in
22:28 42.7 °F 38.5 °F 30.17 in Calm     85 % 0.00 in
22:33 42.7 °F 38.5 °F 30.17 in Calm     85 % 0.00 in
22:38 42.6 °F 38.4 °F 30.17 in Calm     85 % 0.00 in
22:43 42.5 °F 38.3 °F 30.17 in Calm     85 % 0.00 in
22:48 42.5 °F 38.3 °F 30.17 in Calm     85 % 0.00 in
22:53 42.5 °F 38.3 °F 30.17 in Calm     85 % 0.00 in
22:58 42.4 °F 38.2 °F 30.16 in Calm     85 % 0.00 in
23:03 42.3 °F 38.4 °F 30.16 in Calm     86 % 0.00 in
23:08 42.4 °F 38.2 °F 30.17 in Calm     85 % 0.00 in
23:13 42.4 °F 38.2 °F 30.17 in Calm     85 % 0.00 in
23:18 42.2 °F 38.0 °F 30.17 in Calm     85 % 0.00 in
23:23 42.0 °F 38.1 °F 30.17 in Calm     86 % 0.00 in
23:28 41.8 °F 37.9 °F 30.17 in Calm     86 % 0.00 in
23:33 41.6 °F 37.7 °F 30.17 in Calm     86 % 0.00 in
23:38 41.4 °F 37.8 °F 30.17 in Calm     87 % 0.00 in
23:43 41.3 °F 37.7 °F 30.16 in Calm     87 % 0.00 in
23:48 41.1 °F 37.5 °F 30.16 in Calm     87 % 0.00 in
23:53 41.1 °F 37.8 °F 30.16 in Calm     88 % 0.00 in
23:58 41.0 °F 37.7 °F 30.16 in Calm     88 % 0.00 in
Park Place, Exeter, Tulare County, California, USA
Compliments of Weather Underground - 2.75 mb